Lodge, SC (29082)

9:29 AM EST on February 07, 2016 (GMT -0500)
KQ4WH, Skunkworks | | Change Station
CLOSE
Current Station
Personal Weather Station
Location: Smoaks, SC
Elevation: 108 ft
Nearby Weather Stations
Active Advisory: Flood Warning

Elev 108 ft 33.09 °N, 80.81 °W | Updated 18 seconds ago

Mostly Cloudy
Mostly Cloudy
39.8 °F
Feels Like 40 °F
N
0.0
Wind Variable Wind from North
Gusts 13.2 mph

Today
High -- | Low -- °F
--% Chance of Precip.
Yesterday
High -- | Low -- °F
Precip. -- in
Pressure 30.02 in
Visibility 10.0 miles
Clouds Overcast 3600 ft
Windchill 40 °F
Dew Point 36 °F
Humidity 85%
Rainfall 0.38 in
Snow Depth Not available.
7:15 AM 6:01 PM
Waning Crescent, 1% visible
METAR KRBW 071415Z AUTO 33008G15KT 10SM OVC036 05/02 A3002 RMK AO2
Pressure 30.02 in
Visibility 10.0 miles
Clouds Overcast 3600 ft
Windchill 40 °F
Dew Point 36 °F
Humidity 85%
Rainfall 0.38 in
Snow Depth Not available.
7:15 AM 6:01 PM
Waning Crescent, 1% visible
METAR KRBW 071415Z AUTO 33008G15KT 10SM OVC036 05/02 A3002 RMK AO2

10-Day Weather Forecast

Almanac

Astronomy

Feb. 07, 2016 Rise Set
Actual Time
Civil Twilight
Nautical Twilight
Astronomical Twilight
Moon
Length of Visible Light
Length of Day
Tomorrow will be .
, % of the Moon is Illuminated

Today's Extremes

State Highs State Lows

Community

WunderPhotos

Upload Photos

1,891,204 photos uploaded!

WunderBlog® & News

Nearby

Air Quality

  Air Quality AQ Index Pollutant
Not available.

Snow Depth

Station Depth Elevation

Earthquake Activity

City Distance Mag. Time & Date
Minimum magnitude displayed is 2.5.

Coastal Water Temperatures

Place Temperature

Stations

Nearby Weather Stations

Station Location Temp. Windchill Dew Point Humidity Wind Precip. Elev Updated Type
                   

Watches & Warnings

Flood Warning
Issued: 8:52 PM EST Feb. 6, 2016 – National Weather Service

The Flood Warning continues for
the edisto river near Givhans Ferry.
* At 8 PM Saturday the stage was 12.3 feet.
* Flood stage is 10.0 feet.
* Moderate flooding is occurring.
* Forecast, the river will continue rising to near 13.2 feet by
Tuesday morning. Additional rises may be possible thereafter.
* At 13.0 feet, some homes near the end of happiness Lane are flooded.
Most homes and Cabins along the river between Canadys and Norman
Landing are accessible only by boat.


Lat... Lon 3304 8065 3311 8062 3308 8036 3286 8036
          3286 8045 3302 8044